메인 페이지
METAR-TAF:

METAR-TAF

공항 :

이스터 섬, 칠레

마타베리 국제공항

위도: 27-09S, 경도: 109-25W, 고도: 51m

현재 날씨관측

예보는 47분 전, 18:00시(UTC)에 발표되었습니다.
8kt
온도 26°C
습도 65%
기압 1023 hPa
시정 10km 이상
고도 2500ft 상공 구름 조금
고도 15000ft 상공 구름 보통

METAR: SCIP 161800Z 10008KT 9999 FEW025 SCT150 26/19 Q1023 NOSIG

시각: 13:47 (18:47 UTC)

예보

예보는 8 시간 14분 전, 10:33시(UTC)에 발표되었습니다.
예보 대상 시간: 16일 12시부터 17일 12시까지 (UTC)
5kt
시정 10km 이상
고도 2500ft 상공 구름 보통
고도 10000ft 상공 구름 많음
일시적
16일 12시부터 16일 15시까지 (UTC)
북북동10kt
시정: 8000m
고도 2500ft 상공 구름 많음
고도 4000ft 상공 구름 보통
약한소나기
전환 중
16일 16시부터 16일 18시까지 (UTC)
10kt
고도 2500ft 상공 구름 보통
고도 25000ft 상공 구름 보통
일시적
16일 21시부터 17일 03시까지 (UTC)
북북동5kt
시정: 8000m
고도 2000ft 상공 구름 많음
고도 5000ft 상공 구름 보통
약한소나기
전환 중
17일 04시부터 17일 06시까지 (UTC)
5kt

TAF: SCIP 161033Z 1612/1712 10005KT 9999 SCT025 BKN100 TX26/1620Z TN18/1711Z TEMPO 1612/1615 03010KT 8000 -SHRA BKN025 SCT040 BECMG 1616/1618 09010KT SCT025 SCT250 TEMPO 1621/1703 03005KT 8000 -SHRA BKN020 SCT050 BECMG 1704/1706 10005KT

4,000개 이상의 공항 관측 자료 및 예보 (METAR 및 TAF 보고).

지도상에서 검색 가능한 기상관측소가 노란 점과 빨간 점으로 표시되어 있습니다.

기상관측소 명을 보려면 표시 위로 마우스를 이동하세요.

날씨 관측과 예보를 보려면 클릭하세요.

지도 변경 : 확대하려면 엑스 표시가 있는 녹색 버튼, 축소하려면 빼기 표시가 있는 녹색 버튼, 다음 페이지의 지도를 보려면 녹색 화살표를 클릭하세요.


METAR-TAF: